Time;durP1;ratioP1;P1;durP2;ratioP2;P2;SDS_P1;SDS_P2;PMS_P1;PMS_P2;Temp;Humidity;BMP_temperature;BMP_pressure;BME280_temperature;BME280_humidity;BME280_pressure;Samples;Min_cycle;Max_cycle;Signal;HPM_P1;HPM_P2
2022/09/24 00:01:29;;;;;;;6.47;5.00;;;13.00;99.90;;;;;;5038918;28;20195;-70
2022/09/24 00:03:59;;;;;;;5.33;4.23;;;13.00;99.90;;;;;;5029406;28;20238;-72
2022/09/24 00:06:25;;;;;;;4.60;4.20;;;12.90;99.90;;;;;;5044860;28;20557;-71
2022/09/24 00:08:53;;;;;;;7.87;6.37;;;12.80;99.90;;;;;;5031550;28;20207;-70
2022/09/24 00:11:20;;;;;;;5.83;5.33;;;12.80;99.90;;;;;;5028560;28;20207;-72
2022/09/24 00:13:46;;;;;;;5.03;4.63;;;12.70;99.90;;;;;;5023038;28;20655;-74
2022/09/24 00:16:15;;;;;;;4.67;4.27;;;12.70;99.90;;;;;;5032691;28;20219;-70
2022/09/24 00:18:41;;;;;;;5.53;4.50;;;12.60;99.90;;;;;;5027581;28;20231;-63
2022/09/24 00:21:22;;;;;;;5.47;4.97;;;12.60;99.90;;;;;;5026695;28;20196;-68
2022/09/24 00:23:53;;;;;;;6.70;4.77;;;12.50;99.90;;;;;;5032463;28;20274;-71
2022/09/24 00:29:05;;;;;;;5.83;5.20;;;12.40;99.90;;;;;;5018811;28;20218;-70
2022/09/24 00:31:31;;;;;;;7.60;5.00;;;12.40;99.90;;;;;;5026851;28;20615;-67
2022/09/24 00:33:57;;;;;;;6.30;4.63;;;12.40;99.90;;;;;;5029237;28;20199;-69
2022/09/24 00:36:23;;;;;;;7.67;5.17;;;12.30;99.90;;;;;;5044180;28;20235;-68
2022/09/24 00:38:53;;;;;;;5.47;4.97;;;12.30;99.90;;;;;;5024671;28;20211;-71
2022/09/24 00:41:20;;;;;;;6.90;5.27;;;12.30;99.90;;;;;;5027896;28;20187;-69
2022/09/24 00:43:48;;;;;;;5.63;4.87;;;12.30;99.90;;;;;;5032002;28;20210;-69
2022/09/24 00:46:36;;;;;;;7.20;5.30;;;12.30;99.90;;;;;;5029086;28;20249;-71
2022/09/24 00:49:10;;;;;;;5.80;5.30;;;12.30;99.90;;;;;;5015159;28;20211;-70
2022/09/24 00:51:38;;;;;;;5.30;4.80;;;12.30;99.90;;;;;;5017215;28;20297;-69
2022/09/24 00:54:08;;;;;;;6.90;5.47;;;12.30;99.90;;;;;;5017426;28;20207;-69
2022/09/24 00:56:36;;;;;;;5.93;5.43;;;12.20;99.90;;;;;;5034406;28;20306;-69
2022/09/24 00:59:05;;;;;;;6.23;5.63;;;12.20;99.90;;;;;;5027185;28;20262;-71
2022/09/24 01:01:31;;;;;;;6.00;4.90;;;12.30;99.90;;;;;;5038718;28;20195;-71
2022/09/24 01:03:58;;;;;;;6.77;6.07;;;12.30;99.90;;;;;;5029510;28;20203;-71
2022/09/24 01:06:25;;;;;;;5.57;5.07;;;12.30;99.90;;;;;;5042658;28;20221;-71
2022/09/24 01:08:51;;;;;;;6.70;5.33;;;12.20;99.90;;;;;;5031978;28;20230;-71
2022/09/24 01:11:52;;;;;;;6.10;5.13;;;12.30;99.90;;;;;;5027948;28;20196;-71
2022/09/24 01:14:45;;;;;;;6.37;5.30;;;12.30;99.90;;;;;;5018037;28;20211;-71
2022/09/24 01:17:43;;;;;;;6.57;5.40;;;12.30;99.90;;;;;;5013738;28;20194;-70
2022/09/24 01:21:02;;;;;;;5.60;5.10;;;12.30;99.90;;;;;;5018089;28;20219;-70
2022/09/24 01:23:58;;;;;;;5.53;4.90;;;12.30;99.90;;;;;;5006204;28;20201;-71
2022/09/24 01:27:10;;;;;;;6.43;5.00;;;12.30;99.90;;;;;;5018865;28;20211;-73
2022/09/24 01:29:42;;;;;;;6.50;5.90;;;12.30;99.90;;;;;;5009900;28;20215;-72
2022/09/24 01:32:30;;;;;;;5.67;5.27;;;12.40;99.90;;;;;;5013282;28;20270;-72
2022/09/24 01:35:13;;;;;;;6.10;5.47;;;12.40;99.90;;;;;;5012862;28;20636;-73
2022/09/24 01:37:43;;;;;;;6.27;5.77;;;12.40;99.90;;;;;;5020463;28;20278;-71
2022/09/24 01:40:11;;;;;;;6.87;6.13;;;12.40;99.90;;;;;;5004850;28;20281;-74
2022/09/24 01:42:39;;;;;;;6.93;6.30;;;12.50;99.90;;;;;;5040482;28;20206;-71
2022/09/24 01:45:05;;;;;;;7.70;6.90;;;12.50;99.90;;;;;;5024534;28;20216;-68
2022/09/24 01:47:37;;;;;;;6.43;5.83;;;12.60;99.90;;;;;;5025408;28;20232;-69
2022/09/24 01:50:03;;;;;;;6.50;5.90;;;12.60;99.90;;;;;;5014425;28;20693;-69
2022/09/24 01:52:37;;;;;;;6.97;6.00;;;12.60;99.90;;;;;;5030780;28;20218;-70
2022/09/24 01:55:06;;;;;;;7.03;6.33;;;12.60;99.90;;;;;;5012355;28;20213;-69
2022/09/24 01:57:48;;;;;;;6.90;6.20;;;12.60;99.90;;;;;;5029748;28;20296;-69
2022/09/24 02:00:20;;;;;;;6.50;5.90;;;12.60;99.90;;;;;;5009169;28;20258;-71
2022/09/24 02:02:54;;;;;;;7.03;6.33;;;12.60;99.90;;;;;;5003964;28;20204;-71
2022/09/24 02:05:42;;;;;;;7.30;6.60;;;12.60;99.90;;;;;;5012388;28;20188;-72
2022/09/24 02:08:13;;;;;;;6.47;5.90;;;12.60;99.90;;;;;;5011641;28;20686;-72
2022/09/24 02:11:01;;;;;;;7.43;6.00;;;12.70;99.90;;;;;;5027041;28;20282;-71
2022/09/24 02:13:35;;;;;;;5.70;5.20;;;12.70;99.90;;;;;;5025586;28;20200;-70
2022/09/24 02:16:03;;;;;;;6.90;6.30;;;12.70;99.90;;;;;;5028701;28;20190;-70
2022/09/24 02:18:35;;;;;;;8.10;6.57;;;12.80;99.90;;;;;;5032202;28;20204;-70
2022/09/24 02:21:05;;;;;;;7.03;5.67;;;12.80;99.90;;;;;;5012377;28;20211;-70
2022/09/24 02:23:35;;;;;;;7.50;6.80;;;12.80;99.90;;;;;;5017610;28;20286;-70
2022/09/24 02:26:01;;;;;;;7.53;6.80;;;12.80;99.90;;;;;;5022938;28;20238;-70
2022/09/24 02:28:27;;;;;;;6.70;6.00;;;12.80;99.90;;;;;;5039715;28;20191;-70
2022/09/24 02:31:01;;;;;;;6.40;5.90;;;12.80;99.90;;;;;;5029270;28;20199;-70
2022/09/24 02:34:30;;;;;;;7.57;6.10;;;12.80;99.90;;;;;;5018577;28;20285;-70
2022/09/24 02:36:24;;;;;;;8.20;6.13;;;12.80;99.90;;;;;;5024330;28;20565;-70
2022/09/24 02:38:51;;;;;;;7.40;6.60;;;12.70;99.90;;;;;;5027078;28;20212;-70
2022/09/24 02:41:18;;;;;;;9.13;6.33;;;12.70;99.90;;;;;;5034380;28;20192;-70
2022/09/24 02:43:43;;;;;;;5.93;5.43;;;12.70;99.90;;;;;;5028758;28;20207;-70
2022/09/24 02:46:09;;;;;;;6.90;6.30;;;12.80;99.90;;;;;;5016854;28;20203;-70
2022/09/24 02:48:35;;;;;;;5.97;5.43;;;12.80;99.90;;;;;;5034048;28;20677;-70
2022/09/24 02:51:03;;;;;;;6.43;5.83;;;12.80;99.90;;;;;;5033953;28;20231;-70
2022/09/24 02:53:29;;;;;;;8.43;7.13;;;12.80;99.90;;;;;;5039040;28;20547;-71
2022/09/24 02:55:54;;;;;;;7.37;6.67;;;12.80;99.90;;;;;;5027452;28;20187;-71
2022/09/24 02:58:20;;;;;;;6.63;6.03;;;12.80;99.90;;;;;;5032119;28;20201;-72
2022/09/24 03:00:45;;;;;;;6.73;6.10;;;12.80;99.90;;;;;;5018906;28;20653;-72
2022/09/24 03:03:11;;;;;;;7.30;6.70;;;12.80;99.90;;;;;;5036425;28;20202;-72
2022/09/24 03:05:36;;;;;;;7.40;6.67;;;12.80;99.90;;;;;;5024362;28;20192;-72
2022/09/24 03:08:02;;;;;;;6.87;6.07;;;12.80;99.90;;;;;;5032804;28;20191;-72
2022/09/24 03:10:27;;;;;;;10.07;6.47;;;12.80;99.90;;;;;;5019773;28;20546;-71
2022/09/24 03:12:53;;;;;;;8.30;6.30;;;12.80;99.90;;;;;;5027544;28;20218;-71
2022/09/24 03:15:18;;;;;;;9.27;6.37;;;12.70;99.90;;;;;;5016017;28;20243;-71
2022/09/24 03:17:44;;;;;;;7.27;6.67;;;12.70;99.90;;;;;;5033479;28;20207;-71
2022/09/24 03:20:09;;;;;;;9.20;7.13;;;12.70;99.90;;;;;;5018369;28;20222;-71
2022/09/24 03:22:35;;;;;;;9.30;6.60;;;12.70;99.90;;;;;;5033104;28;20557;-71
2022/09/24 03:25:02;;;;;;;7.97;6.17;;;12.60;99.90;;;;;;5023920;28;20196;-70
2022/09/24 03:27:27;;;;;;;6.07;5.50;;;12.60;99.90;;;;;;5031399;28;20198;-70
2022/09/24 03:32:38;;;;;;;8.60;6.43;;;12.60;99.90;;;;;;5014927;28;20278;-71
2022/09/24 03:35:04;;;;;;;7.20;6.50;;;12.60;99.90;;;;;;5027313;28;20291;-72
2022/09/24 03:37:30;;;;;;;7.97;6.60;;;12.60;99.90;;;;;;5027187;28;20847;-71
2022/09/24 03:39:56;;;;;;;9.60;6.90;;;12.50;99.90;;;;;;5024998;28;20656;-72
2022/09/24 03:42:21;;;;;;;7.70;7.00;;;12.50;99.90;;;;;;5037989;28;20249;-72
2022/09/24 03:44:47;;;;;;;7.97;6.90;;;12.50;99.90;;;;;;5029247;28;20292;-72
2022/09/24 03:47:12;;;;;;;7.80;7.00;;;12.40;99.90;;;;;;5041285;28;20201;-72
2022/09/24 03:49:38;;;;;;;7.60;6.80;;;12.40;99.90;;;;;;5031353;28;20747;-71
2022/09/24 03:52:03;;;;;;;6.70;6.10;;;12.40;99.90;;;;;;5045880;28;20606;-72
2022/09/24 03:54:29;;;;;;;7.37;6.67;;;12.40;99.90;;;;;;5023193;28;20212;-71
2022/09/24 03:56:54;;;;;;;6.77;6.17;;;12.40;99.90;;;;;;5038952;28;20210;-71
2022/09/24 03:59:20;;;;;;;8.60;7.00;;;12.40;99.90;;;;;;5029842;28;20708;-71
2022/09/24 04:01:45;;;;;;;6.80;6.17;;;12.40;99.90;;;;;;5036799;28;20530;-72
2022/09/24 04:04:14;;;;;;;8.07;6.87;;;12.40;99.90;;;;;;5031459;28;20620;-71
2022/09/24 04:06:39;;;;;;;10.63;7.07;;;12.50;99.90;;;;;;5029537;28;20231;-71
2022/09/24 04:09:05;;;;;;;7.60;6.87;;;12.50;99.90;;;;;;5035849;28;20242;-75
2022/09/24 04:11:33;;;;;;;7.13;6.53;;;12.60;99.90;;;;;;5025001;28;20813;-72
2022/09/24 04:13:58;;;;;;;8.00;7.27;;;12.60;99.90;;;;;;5037254;28;20203;-72
2022/09/24 04:16:23;;;;;;;7.53;6.83;;;12.60;99.90;;;;;;5014063;28;20705;-71
2022/09/24 04:18:49;;;;;;;7.97;6.13;;;12.60;99.90;;;;;;5033535;28;20265;-72
2022/09/24 04:21:15;;;;;;;7.37;6.63;;;12.50;99.90;;;;;;5018189;28;20184;-72
2022/09/24 04:23:41;;;;;;;8.40;7.60;;;12.50;99.90;;;;;;5039547;28;20199;-72
2022/09/24 04:26:06;;;;;;;7.67;6.97;;;12.50;99.90;;;;;;5012005;28;20196;-71
2022/09/24 04:28:32;;;;;;;8.13;7.33;;;12.50;99.90;;;;;;5025766;28;20561;-71
2022/09/24 04:30:57;;;;;;;9.27;7.77;;;12.50;99.90;;;;;;5026180;28;20236;-70
2022/09/24 04:33:23;;;;;;;7.50;6.47;;;12.50;99.90;;;;;;5029189;28;20195;-70
2022/09/24 04:35:48;;;;;;;8.33;7.07;;;12.40;99.90;;;;;;5016910;28;20214;-70
2022/09/24 04:38:14;;;;;;;7.73;7.00;;;12.40;99.90;;;;;;5027368;28;20329;-71
2022/09/24 04:40:40;;;;;;;8.17;7.47;;;12.40;99.90;;;;;;5025327;28;20210;-71
2022/09/24 04:43:05;;;;;;;7.67;6.97;;;12.40;99.90;;;;;;5045336;28;20193;-71
2022/09/24 04:45:32;;;;;;;7.83;7.03;;;12.30;99.90;;;;;;5017741;28;20200;-71
2022/09/24 04:47:57;;;;;;;7.30;6.60;;;12.40;99.90;;;;;;5034196;28;20200;-71
2022/09/24 04:50:25;;;;;;;10.00;6.90;;;12.30;99.90;;;;;;5027394;28;20222;-71
2022/09/24 04:52:50;;;;;;;9.17;7.40;;;12.30;99.90;;;;;;5032032;28;20211;-70
2022/09/24 04:55:16;;;;;;;8.37;6.73;;;12.30;99.90;;;;;;5026922;28;20207;-70
2022/09/24 04:57:44;;;;;;;7.60;6.97;;;12.30;99.90;;;;;;5028095;28;20202;-71
2022/09/24 05:00:13;;;;;;;7.53;6.93;;;12.30;99.90;;;;;;5028252;28;20320;-70
2022/09/24 05:02:40;;;;;;;7.83;6.90;;;12.40;99.90;;;;;;5033108;28;21113;-70
2022/09/24 05:05:05;;;;;;;9.37;7.47;;;12.40;99.90;;;;;;5027012;28;20209;-70
2022/09/24 05:07:31;;;;;;;7.83;7.13;;;12.40;99.90;;;;;;5025394;28;20195;-70
2022/09/24 05:09:56;;;;;;;8.63;7.50;;;12.40;99.90;;;;;;5029722;28;20587;-70
2022/09/24 05:12:22;;;;;;;7.83;6.77;;;12.40;99.90;;;;;;5037244;28;20250;-70
2022/09/24 05:14:47;;;;;;;9.63;7.23;;;12.40;99.90;;;;;;5024472;28;20194;-71
2022/09/24 05:17:13;;;;;;;8.03;7.30;;;12.40;99.90;;;;;;5039306;28;20197;-70
2022/09/24 05:19:39;;;;;;;7.80;7.00;;;12.50;99.90;;;;;;5032186;28;20254;-72
2022/09/24 05:22:04;;;;;;;7.93;7.23;;;12.50;99.90;;;;;;5036662;28;20231;-72
2022/09/24 05:24:30;;;;;;;8.10;7.30;;;12.50;99.90;;;;;;5024662;28;20199;-71
2022/09/24 05:27:08;;;;;;;8.50;7.60;;;12.50;99.90;;;;;;5029463;28;20198;-71
2022/09/24 05:29:38;;;;;;;7.93;7.03;;;12.60;99.90;;;;;;5018919;28;20202;-73
2022/09/24 05:32:12;;;;;;;8.97;6.33;;;12.60;99.90;;;;;;5025074;28;20569;-72
2022/09/24 05:34:37;;;;;;;9.23;7.07;;;12.60;99.90;;;;;;5016288;28;20292;-71
2022/09/24 05:37:03;;;;;;;8.70;7.43;;;12.60;99.90;;;;;;5025970;28;20225;-72
2022/09/24 05:39:29;;;;;;;7.70;6.97;;;12.60;99.90;;;;;;5031902;28;20220;-71
2022/09/24 05:41:55;;;;;;;8.23;7.53;;;12.60;99.90;;;;;;5029689;28;20751;-72
2022/09/24 05:44:21;;;;;;;8.50;7.80;;;12.50;99.90;;;;;;5027814;28;20200;-71
2022/09/24 05:46:48;;;;;;;7.90;7.10;;;12.50;99.90;;;;;;5028411;28;20188;-72
2022/09/24 05:49:14;;;;;;;8.23;7.27;;;12.50;99.90;;;;;;5039990;28;20203;-71
2022/09/24 05:51:39;;;;;;;12.60;7.87;;;12.50;99.90;;;;;;5040615;28;20231;-71
2022/09/24 05:54:05;;;;;;;21.37;9.13;;;12.50;99.90;;;;;;5027772;28;20203;-72
2022/09/24 05:56:30;;;;;;;11.73;8.83;;;12.50;99.90;;;;;;5026522;28;20237;-71
2022/09/24 05:58:56;;;;;;;12.63;7.70;;;12.50;99.90;;;;;;5042116;28;20316;-72
2022/09/24 06:01:21;;;;;;;11.37;7.70;;;12.50;99.90;;;;;;5020397;28;20244;-71
2022/09/24 06:03:47;;;;;;;10.43;7.77;;;12.50;99.90;;;;;;5037193;28;20183;-71
2022/09/24 06:06:13;;;;;;;8.10;7.40;;;12.50;99.90;;;;;;5028817;28;20196;-72
2022/09/24 06:08:38;;;;;;;12.80;8.17;;;12.50;99.90;;;;;;5033951;28;20188;-71
2022/09/24 06:11:07;;;;;;;8.87;7.30;;;12.50;99.90;;;;;;5021521;28;20446;-72
2022/09/24 06:13:33;;;;;;;8.57;7.77;;;12.50;99.90;;;;;;5036455;28;20198;-73
2022/09/24 06:16:04;;;;;;;7.83;6.37;;;12.50;99.90;;;;;;5026633;28;20195;-72
2022/09/24 06:18:33;;;;;;;9.10;6.87;;;12.50;99.90;;;;;;5023963;28;20218;-72
2022/09/24 06:21:04;;;;;;;9.23;7.37;;;12.60;99.90;;;;;;5026447;28;20254;-72
2022/09/24 06:23:30;;;;;;;7.70;7.00;;;12.70;99.90;;;;;;5032957;28;20194;-72
2022/09/24 06:25:56;;;;;;;9.10;7.00;;;12.70;99.90;;;;;;5026556;28;20654;-72
2022/09/24 06:28:24;;;;;;;7.63;6.77;;;12.80;99.90;;;;;;5047949;28;20197;-72
2022/09/24 06:30:49;;;;;;;11.30;7.13;;;12.90;99.90;;;;;;5017717;28;20239;-72
2022/09/24 06:33:15;;;;;;;7.33;6.73;;;12.90;99.90;;;;;;5033945;28;20253;-70
2022/09/24 06:35:42;;;;;;;7.50;6.80;;;12.90;99.90;;;;;;5029070;28;20325;-70
2022/09/24 06:38:11;;;;;;;7.40;6.80;;;13.00;99.90;;;;;;5035701;28;20199;-71
2022/09/24 06:40:37;;;;;;;7.63;6.80;;;13.00;99.90;;;;;;5029819;28;20724;-70
2022/09/24 06:43:04;;;;;;;8.23;7.23;;;13.10;99.90;;;;;;5031854;28;20573;-71
2022/09/24 06:45:29;;;;;;;7.73;6.97;;;13.20;99.90;;;;;;5028620;28;20227;-71
2022/09/24 06:47:57;;;;;;;7.83;7.07;;;13.30;99.90;;;;;;5036560;28;20656;-72
2022/09/24 06:50:25;;;;;;;7.97;7.13;;;13.30;99.90;;;;;;5034562;28;20312;-70
2022/09/24 06:52:50;;;;;;;10.37;7.80;;;13.40;99.90;;;;;;5030659;28;20521;-73
2022/09/24 06:55:17;;;;;;;7.23;6.43;;;13.40;99.90;;;;;;5027824;28;20211;-70
2022/09/24 06:57:43;;;;;;;8.43;7.40;;;13.50;99.90;;;;;;5037353;28;20203;-69
2022/09/24 07:00:09;;;;;;;9.70;7.57;;;13.50;99.90;;;;;;5025383;28;21152;-72
2022/09/24 07:02:35;;;;;;;8.47;7.67;;;13.60;99.90;;;;;;5016531;28;20535;-72
2022/09/24 07:05:00;;;;;;;8.43;7.50;;;13.70;99.90;;;;;;5028246;28;20200;-71
2022/09/24 07:07:28;;;;;;;9.30;7.80;;;13.70;99.90;;;;;;5036441;28;20534;-71
2022/09/24 07:09:58;;;;;;;9.90;7.10;;;13.70;99.90;;;;;;5035555;28;20681;-72
2022/09/24 07:12:23;;;;;;;7.93;7.23;;;13.70;99.90;;;;;;5032231;28;20326;-71
2022/09/24 07:14:49;;;;;;;8.13;7.43;;;13.80;99.90;;;;;;5026772;28;20285;-71
2022/09/24 07:17:15;;;;;;;11.47;7.37;;;13.80;99.90;;;;;;5033583;28;20663;-71
2022/09/24 07:19:41;;;;;;;8.90;8.10;;;13.90;99.90;;;;;;5035837;28;20238;-76
2022/09/24 07:22:06;;;;;;;8.30;7.33;;;14.00;99.90;;;;;;5025395;28;20210;-71
2022/09/24 07:24:32;;;;;;;7.90;7.00;;;14.00;99.90;;;;;;5024648;28;20209;-70
2022/09/24 07:26:57;;;;;;;8.47;7.50;;;14.10;99.90;;;;;;5023045;28;20180;-72
2022/09/24 07:29:23;;;;;;;8.23;7.57;;;14.10;99.90;;;;;;5020602;28;20665;-75
2022/09/24 07:31:48;;;;;;;7.97;7.27;;;14.20;99.90;;;;;;5017764;28;20184;-70
2022/09/24 07:34:14;;;;;;;8.97;7.97;;;14.20;99.90;;;;;;5035255;28;20199;-77
2022/09/24 07:36:40;;;;;;;10.00;8.27;;;14.20;99.90;;;;;;5028640;28;20728;-67
2022/09/24 07:39:06;;;;;;;9.60;7.47;;;14.20;99.90;;;;;;5031794;28;20295;-67
2022/09/24 07:41:32;;;;;;;14.13;7.60;;;14.20;99.90;;;;;;5019461;28;20670;-65
2022/09/24 07:43:58;;;;;;;8.50;7.70;;;14.00;99.90;;;;;;5032904;28;20191;-65
2022/09/24 07:46:24;;;;;;;8.60;7.80;;;13.90;99.90;;;;;;5020629;28;20191;-66
2022/09/24 07:48:54;;;;;;;9.37;8.57;;;13.90;99.90;;;;;;5031575;28;20194;-66
2022/09/24 07:51:20;;;;;;;8.30;7.43;;;13.80;99.90;;;;;;5028171;28;20838;-75
2022/09/24 07:53:47;;;;;;;7.70;6.90;;;13.80;99.90;;;;;;5032281;28;20597;-78
2022/09/24 07:56:12;;;;;;;8.60;7.80;;;13.80;99.90;;;;;;5025556;28;20286;-65
2022/09/24 07:58:38;;;;;;;8.50;7.70;;;13.80;99.90;;;;;;5031427;28;20341;-64
2022/09/24 08:01:03;;;;;;;9.27;8.37;;;13.80;99.90;;;;;;5025220;28;20196;-63
2022/09/24 08:03:29;;;;;;;8.30;7.50;;;13.90;99.90;;;;;;5026092;28;20763;-63
2022/09/24 08:05:58;;;;;;;9.47;7.53;;;13.90;99.90;;;;;;5027171;28;20203;-65
2022/09/24 08:08:24;;;;;;;7.37;6.67;;;14.00;99.90;;;;;;5026711;28;20195;-66
2022/09/24 08:10:50;;;;;;;9.27;7.57;;;14.10;99.90;;;;;;5024566;28;20206;-63
2022/09/24 08:13:15;;;;;;;8.33;7.30;;;14.10;99.90;;;;;;5039322;28;20199;-63
2022/09/24 08:15:41;;;;;;;8.50;7.43;;;14.20;99.90;;;;;;5028797;28;20638;-64
2022/09/24 08:18:07;;;;;;;8.20;7.40;;;14.20;99.90;;;;;;5036244;28;20188;-63
2022/09/24 08:20:34;;;;;;;9.30;7.53;;;14.30;99.90;;;;;;5025575;28;20223;-64
2022/09/24 08:23:01;;;;;;;9.17;8.20;;;14.40;99.90;;;;;;5016833;28;20403;-63
2022/09/24 08:25:26;;;;;;;9.83;7.30;;;14.50;99.90;;;;;;5031684;28;20661;-63
2022/09/24 08:27:52;;;;;;;9.03;8.20;;;14.60;99.90;;;;;;5018950;28;20190;-66
2022/09/24 08:30:17;;;;;;;8.27;7.47;;;14.60;99.90;;;;;;5018781;28;20347;-64
2022/09/24 08:32:47;;;;;;;9.10;8.20;;;14.70;99.90;;;;;;5016752;28;20200;-63
2022/09/24 08:35:14;;;;;;;8.17;7.47;;;14.80;99.90;;;;;;5016496;28;20207;-63
2022/09/24 08:37:40;;;;;;;8.77;7.67;;;14.80;99.90;;;;;;5021148;28;20199;-64
2022/09/24 08:40:06;;;;;;;7.90;7.13;;;14.90;99.90;;;;;;5017021;28;20578;-63
2022/09/24 08:42:53;;;;;;;8.23;7.30;;;15.00;99.90;;;;;;5044659;28;20277;-69
2022/09/24 08:48:20;;;;;;;7.83;7.13;;;15.10;99.90;;;;;;5025129;28;20218;-63
2022/09/24 08:50:57;;;;;;;9.93;7.67;;;15.20;99.90;;;;;;5018602;28;20322;-61
2022/09/24 08:53:47;;;;;;;7.40;6.67;;;15.20;99.90;;;;;;5015179;28;20207;-62
2022/09/24 08:56:16;;;;;;;9.23;7.77;;;15.30;99.90;;;;;;5016183;28;20199;-59
2022/09/24 08:58:57;;;;;;;8.80;7.93;;;15.40;99.90;;;;;;5019661;28;20199;-61
2022/09/24 09:01:35;;;;;;;8.20;7.50;;;15.60;99.90;;;;;;5012901;28;20199;-62
2022/09/24 09:04:02;;;;;;;10.87;8.70;;;15.80;99.90;;;;;;5016631;28;20214;-64
2022/09/24 09:06:48;;;;;;;8.70;7.87;;;15.90;99.90;;;;;;5014081;28;20193;-64
2022/09/24 09:09:15;;;;;;;8.77;7.97;;;16.10;99.90;;;;;;5017404;28;20180;-63
2022/09/24 09:11:48;;;;;;;12.00;8.27;;;16.20;99.90;;;;;;5015704;28;20237;-65
2022/09/24 09:14:23;;;;;;;8.80;7.67;;;16.30;99.90;;;;;;5017690;28;20187;-75
2022/09/24 09:16:54;;;;;;;8.50;7.70;;;16.30;99.90;;;;;;5015665;28;20244;-65
2022/09/24 09:19:26;;;;;;;8.20;6.87;;;16.30;99.90;;;;;;5015896;28;20286;-65
2022/09/24 09:22:00;;;;;;;10.17;7.10;;;16.40;99.90;;;;;;5016302;28;20184;-70
2022/09/24 09:24:45;;;;;;;9.60;7.80;;;16.40;99.90;;;;;;5017672;28;20189;-64
2022/09/24 09:27:15;;;;;;;8.83;7.93;;;16.50;99.90;;;;;;5012631;28;20223;-64
2022/09/24 09:29:43;;;;;;;7.77;7.00;;;16.50;99.90;;;;;;5037684;28;20207;-64
2022/09/24 09:32:47;;;;;;;7.50;6.90;;;16.70;99.90;;;;;;5024258;28;20222;-65
2022/09/24 09:35:28;;;;;;;8.30;7.60;;;16.70;99.90;;;;;;5029533;28;20338;-64
2022/09/24 09:38:07;;;;;;;7.80;7.10;;;16.60;99.90;;;;;;5023136;28;20195;-64
2022/09/24 09:40:47;;;;;;;9.23;7.93;;;16.70;99.90;;;;;;5013672;28;20326;-65
2022/09/24 09:43:13;;;;;;;8.33;7.53;;;16.60;99.90;;;;;;5021578;28;21134;-64
2022/09/24 09:46:00;;;;;;;8.13;7.43;;;16.60;99.90;;;;;;5030959;28;20204;-68
2022/09/24 09:48:35;;;;;;;8.07;6.87;;;16.60;99.90;;;;;;5013578;28;20183;-68
2022/09/24 09:51:04;;;;;;;7.43;6.63;;;16.60;99.90;;;;;;5030471;28;20230;-72
2022/09/24 09:53:30;;;;;;;7.97;7.17;;;16.50;99.90;;;;;;5024643;28;20215;-64
2022/09/24 09:55:59;;;;;;;8.03;7.20;;;16.50;99.90;;;;;;5026997;28;20688;-64
2022/09/24 09:58:27;;;;;;;6.87;6.23;;;16.50;99.90;;;;;;5022177;28;20651;-68
2022/09/24 10:01:06;;;;;;;7.70;7.00;;;16.50;99.90;;;;;;5017258;28;20219;-66
2022/09/24 10:03:38;;;;;;;7.80;6.93;;;16.60;99.90;;;;;;5021437;28;20183;-65
2022/09/24 10:06:06;;;;;;;7.37;6.67;;;16.60;99.90;;;;;;5013605;28;20204;-78
2022/09/24 10:08:31;;;;;;;6.90;5.83;;;16.70;99.90;;;;;;5018424;28;20189;-71
2022/09/24 10:10:59;;;;;;;9.10;6.50;;;16.80;99.90;;;;;;5018653;28;20243;-68
2022/09/24 10:13:26;;;;;;;8.37;6.60;;;16.90;99.90;;;;;;5041709;28;20195;-68
2022/09/24 10:16:03;;;;;;;7.47;6.50;;;17.00;99.90;;;;;;5030074;28;20257;-68
2022/09/24 10:18:41;;;;;;;7.70;6.90;;;17.00;99.90;;;;;;5034441;28;20188;-68
2022/09/24 10:21:12;;;;;;;10.13;7.17;;;17.10;99.90;;;;;;5014575;28;20637;-67
2022/09/24 10:23:43;;;;;;;6.87;6.27;;;17.10;99.90;;;;;;5020951;28;20252;-67
2022/09/24 10:26:09;;;;;;;8.27;6.73;;;17.10;99.90;;;;;;5016376;28;20610;-67
2022/09/24 10:31:30;;;;;;;10.67;7.37;;;16.90;99.90;;;;;;5021038;28;20258;-67
2022/09/24 10:33:58;;;;;;;7.27;6.53;;;16.70;99.90;;;;;;5041344;28;20200;-67
2022/09/24 10:36:27;;;;;;;7.17;6.27;;;16.60;99.90;;;;;;5028409;28;20257;-67
2022/09/24 10:39:23;;;;;;;7.40;6.00;;;16.60;99.90;;;;;;5047695;28;20187;-68
2022/09/24 10:41:51;;;;;;;7.37;6.60;;;16.60;99.90;;;;;;5016323;28;20279;-68
2022/09/24 10:44:18;;;;;;;6.73;6.13;;;16.60;99.90;;;;;;5027466;28;20199;-68
2022/09/24 10:47:11;;;;;;;7.07;6.10;;;16.70;99.90;;;;;;5026979;28;20303;-68
2022/09/24 10:49:54;;;;;;;6.93;6.30;;;16.80;99.90;;;;;;5017762;28;20187;-68
2022/09/24 10:52:38;;;;;;;7.57;5.93;;;16.90;99.90;;;;;;5020711;28;20305;-67
2022/09/24 10:55:18;;;;;;;7.40;6.73;;;16.90;99.90;;;;;;5036545;28;20571;-68
2022/09/24 10:58:02;;;;;;;11.90;6.93;;;17.10;99.90;;;;;;5039039;28;20191;-68
2022/09/24 11:00:40;;;;;;;7.07;6.37;;;17.10;99.90;;;;;;5030668;28;21016;-68
2022/09/24 11:03:37;;;;;;;7.43;6.60;;;17.20;99.90;;;;;;5027399;28;20207;-68
2022/09/24 11:06:34;;;;;;;7.60;6.90;;;17.30;99.90;;;;;;5017820;28;20204;-68
2022/09/24 11:09:19;;;;;;;7.37;6.67;;;17.50;99.90;;;;;;5014313;28;21073;-68
2022/09/24 11:12:08;;;;;;;9.07;5.70;;;17.70;99.90;;;;;;5025663;28;20278;-68
2022/09/24 11:14:58;;;;;;;7.43;6.80;;;17.80;99.90;;;;;;5010610;28;20191;-68
2022/09/24 11:17:32;;;;;;;6.50;6.00;;;18.00;98.90;;;;;;5026956;28;20656;-68
2022/09/24 11:20:19;;;;;;;7.03;6.33;;;18.00;99.60;;;;;;5024245;28;20265;-68
2022/09/24 11:22:54;;;;;;;6.57;6.03;;;18.20;99.30;;;;;;5033568;28;20195;-68
2022/09/24 11:25:43;;;;;;;7.53;6.73;;;18.20;98.60;;;;;;5017277;28;20198;-67
2022/09/24 11:28:45;;;;;;;7.60;6.77;;;18.20;98.30;;;;;;5010995;28;20192;-67
2022/09/24 11:31:36;;;;;;;6.50;5.90;;;18.30;98.30;;;;;;5021735;28;20191;-68
2022/09/24 11:34:16;;;;;;;8.10;6.60;;;18.20;98.40;;;;;;5039905;28;20738;-68
2022/09/24 11:37:00;;;;;;;6.17;5.67;;;18.30;98.30;;;;;;5023051;28;20250;-68
2022/09/24 11:39:33;;;;;;;6.53;5.93;;;18.40;98.20;;;;;;5013137;28;20681;-69
2022/09/24 11:42:27;;;;;;;6.57;5.87;;;18.50;98.60;;;;;;5020991;28;20204;-68
2022/09/24 11:45:18;;;;;;;7.07;5.80;;;18.70;98.00;;;;;;5015014;28;20223;-68
2022/09/24 11:48:15;;;;;;;5.93;5.50;;;18.90;97.70;;;;;;5018589;28;20259;-68
2022/09/24 11:51:25;;;;;;;6.60;6.00;;;19.00;97.00;;;;;;5020320;28;20700;-68
2022/09/24 11:54:18;;;;;;;6.40;5.80;;;19.00;96.70;;;;;;5020206;28;20200;-68
2022/09/24 11:56:48;;;;;;;7.23;6.27;;;19.00;98.10;;;;;;5016471;28;20210;-68
2022/09/24 11:59:42;;;;;;;6.23;5.73;;;19.00;97.70;;;;;;5033503;28;20211;-68
2022/09/24 12:02:23;;;;;;;6.63;5.83;;;19.10;96.90;;;;;;5020978;28;20282;-68
2022/09/24 12:04:54;;;;;;;6.40;5.80;;;19.00;96.80;;;;;;5014331;28;20186;-68
2022/09/24 12:07:41;;;;;;;5.87;5.27;;;19.00;97.10;;;;;;5017909;28;20626;-68
2022/09/24 12:10:23;;;;;;;6.50;5.90;;;19.10;96.50;;;;;;5016338;28;20187;-68
2022/09/24 12:12:51;;;;;;;7.07;5.40;;;19.10;96.60;;;;;;5026312;28;20191;-68
2022/09/24 12:15:22;;;;;;;5.13;4.77;;;19.10;96.70;;;;;;5025435;28;20205;-69
2022/09/24 12:17:56;;;;;;;6.10;5.30;;;19.10;96.80;;;;;;5026146;28;20188;-69
2022/09/24 12:20:27;;;;;;;6.03;5.43;;;19.10;97.40;;;;;;5021340;28;20803;-68
2022/09/24 12:23:08;;;;;;;6.97;6.23;;;19.10;98.30;;;;;;5012409;28;20307;-68
2022/09/24 12:25:41;;;;;;;6.20;5.60;;;19.10;97.50;;;;;;5023317;28;20225;-69
2022/09/24 12:32:53;;;;;;;8.20;5.90;;;19.10;97.90;;;;;;5017928;28;20239;-69
2022/09/24 12:34:17;;;;;;;5.47;4.97;;;19.30;97.30;;;;;;5014308;28;20195;-70
2022/09/24 12:37:04;;;;;;;5.07;4.53;;;19.60;99.10;;;;;;5018347;28;20199;-70
2022/09/24 12:39:52;;;;;;;4.67;4.30;;;19.80;96.20;;;;;;5019590;28;20212;-68
2022/09/24 12:42:20;;;;;;;5.93;4.97;;;20.00;95.70;;;;;;5018297;28;20216;-68
2022/09/24 12:44:52;;;;;;;5.97;4.87;;;20.30;96.40;;;;;;5027746;28;20207;-68
2022/09/24 12:47:27;;;;;;;5.07;4.67;;;20.60;94.90;;;;;;5023843;28;20524;-67
2022/09/24 12:49:59;;;;;;;5.00;4.57;;;21.00;94.10;;;;;;5031718;28;20282;-69
2022/09/24 12:52:40;;;;;;;4.50;4.10;;;21.20;93.70;;;;;;5006351;28;21058;-69
2022/09/24 12:55:20;;;;;;;8.67;5.17;;;21.30;93.50;;;;;;5015677;28;20696;-70
2022/09/24 12:58:06;;;;;;;7.50;5.27;;;21.30;93.00;;;;;;5016888;28;20186;-68
2022/09/24 13:00:37;;;;;;;5.30;4.80;;;21.20;94.10;;;;;;5016029;28;20718;-71
2022/09/24 13:03:05;;;;;;;6.70;6.10;;;21.10;95.10;;;;;;5018857;28;20187;-72
2022/09/24 13:05:47;;;;;;;6.37;5.23;;;20.90;93.80;;;;;;5032537;28;20192;-70
2022/09/24 13:08:22;;;;;;;6.17;5.17;;;20.60;93.80;;;;;;5019880;28;20183;-70
2022/09/24 13:10:59;;;;;;;6.03;5.40;;;20.50;93.90;;;;;;5026314;28;20219;-71
2022/09/24 13:13:31;;;;;;;6.07;5.53;;;20.40;94.80;;;;;;5011848;28;20193;-70
2022/09/24 13:16:01;;;;;;;6.10;5.60;;;20.50;94.40;;;;;;5035617;28;20680;-70
2022/09/24 13:18:27;;;;;;;5.53;5.03;;;20.50;94.40;;;;;;5026679;28;20196;-70
2022/09/24 13:21:18;;;;;;;5.33;4.83;;;20.40;95.30;;;;;;5035526;28;20646;-72
2022/09/24 13:23:46;;;;;;;6.10;4.87;;;20.60;94.70;;;;;;5010354;28;20728;-71